sensor_id;sensor_type;location;lat;lon;timestamp;P1;durP1;ratioP1;P2;durP2;ratioP2
42168;SDS011;27838;43.858;25.974;2022-11-24T00:01:04;29.75;;;20.98;;
42168;SDS011;27838;43.858;25.974;2022-11-24T00:03:32;26.95;;;20.52;;
42168;SDS011;27838;43.858;25.974;2022-11-24T00:06:03;31.02;;;21.70;;
42168;SDS011;27838;43.858;25.974;2022-11-24T00:08:42;27.10;;;21.13;;
42168;SDS011;27838;43.858;25.974;2022-11-24T00:11:14;34.03;;;22.73;;
42168;SDS011;27838;43.858;25.974;2022-11-24T00:13:43;28.10;;;21.33;;
42168;SDS011;27838;43.858;25.974;2022-11-24T00:16:14;30.63;;;23.23;;
42168;SDS011;27838;43.858;25.974;2022-11-24T00:18:49;31.70;;;21.88;;
42168;SDS011;27838;43.858;25.974;2022-11-24T00:21:17;30.20;;;21.98;;
42168;SDS011;27838;43.858;25.974;2022-11-24T00:23:44;30.55;;;21.40;;
42168;SDS011;27838;43.858;25.974;2022-11-24T00:26:15;30.27;;;22.20;;
42168;SDS011;27838;43.858;25.974;2022-11-24T00:28:44;31.13;;;21.05;;
42168;SDS011;27838;43.858;25.974;2022-11-24T00:31:16;30.55;;;21.75;;
42168;SDS011;27838;43.858;25.974;2022-11-24T00:33:48;29.33;;;21.73;;
42168;SDS011;27838;43.858;25.974;2022-11-24T00:36:16;30.73;;;22.02;;
42168;SDS011;27838;43.858;25.974;2022-11-24T00:38:46;31.33;;;22.83;;
42168;SDS011;27838;43.858;25.974;2022-11-24T00:41:13;34.03;;;24.13;;
42168;SDS011;27838;43.858;25.974;2022-11-24T00:43:40;38.83;;;24.85;;
42168;SDS011;27838;43.858;25.974;2022-11-24T00:46:06;34.40;;;24.45;;
42168;SDS011;27838;43.858;25.974;2022-11-24T00:48:33;29.17;;;22.17;;
42168;SDS011;27838;43.858;25.974;2022-11-24T00:51:00;29.88;;;22.75;;
42168;SDS011;27838;43.858;25.974;2022-11-24T00:53:32;35.08;;;23.25;;
42168;SDS011;27838;43.858;25.974;2022-11-24T00:55:59;35.08;;;23.08;;
42168;SDS011;27838;43.858;25.974;2022-11-24T00:58:27;38.78;;;23.55;;
42168;SDS011;27838;43.858;25.974;2022-11-24T01:00:54;34.85;;;24.27;;
42168;SDS011;27838;43.858;25.974;2022-11-24T01:03:27;35.63;;;24.13;;
42168;SDS011;27838;43.858;25.974;2022-11-24T01:05:54;35.42;;;23.90;;
42168;SDS011;27838;43.858;25.974;2022-11-24T01:08:20;32.90;;;22.17;;
42168;SDS011;27838;43.858;25.974;2022-11-24T01:10:47;33.30;;;23.35;;
42168;SDS011;27838;43.858;25.974;2022-11-24T01:13:13;35.47;;;23.83;;
42168;SDS011;27838;43.858;25.974;2022-11-24T01:15:40;32.85;;;23.08;;
42168;SDS011;27838;43.858;25.974;2022-11-24T01:18:06;36.53;;;23.73;;
42168;SDS011;27838;43.858;25.974;2022-11-24T01:20:33;38.75;;;23.65;;
42168;SDS011;27838;43.858;25.974;2022-11-24T01:23:02;35.10;;;24.10;;
42168;SDS011;27838;43.858;25.974;2022-11-24T01:25:28;36.80;;;24.75;;
42168;SDS011;27838;43.858;25.974;2022-11-24T01:27:55;39.15;;;24.55;;
42168;SDS011;27838;43.858;25.974;2022-11-24T01:30:21;37.58;;;22.98;;
42168;SDS011;27838;43.858;25.974;2022-11-24T01:32:48;36.10;;;24.20;;
42168;SDS011;27838;43.858;25.974;2022-11-24T01:35:14;34.88;;;23.23;;
42168;SDS011;27838;43.858;25.974;2022-11-24T01:37:41;33.00;;;23.38;;
42168;SDS011;27838;43.858;25.974;2022-11-24T01:40:08;34.05;;;23.52;;
42168;SDS011;27838;43.858;25.974;2022-11-24T01:42:41;31.92;;;24.10;;
42168;SDS011;27838;43.858;25.974;2022-11-24T01:48:50;35.65;;;23.48;;
42168;SDS011;27838;43.858;25.974;2022-11-24T01:51:06;35.08;;;23.92;;
42168;SDS011;27838;43.858;25.974;2022-11-24T01:53:36;33.38;;;23.23;;
42168;SDS011;27838;43.858;25.974;2022-11-24T01:56:06;37.15;;;23.30;;
42168;SDS011;27838;43.858;25.974;2022-11-24T01:58:34;36.72;;;23.63;;
42168;SDS011;27838;43.858;25.974;2022-11-24T02:01:03;36.30;;;23.70;;
42168;SDS011;27838;43.858;25.974;2022-11-24T02:03:32;37.22;;;23.60;;
42168;SDS011;27838;43.858;25.974;2022-11-24T02:06:03;35.25;;;22.88;;
42168;SDS011;27838;43.858;25.974;2022-11-24T02:08:44;34.70;;;23.40;;
42168;SDS011;27838;43.858;25.974;2022-11-24T02:11:16;33.75;;;22.98;;
42168;SDS011;27838;43.858;25.974;2022-11-24T02:13:43;36.53;;;24.17;;
42168;SDS011;27838;43.858;25.974;2022-11-24T02:16:11;31.08;;;20.77;;
42168;SDS011;27838;43.858;25.974;2022-11-24T02:18:38;34.63;;;21.40;;
42168;SDS011;27838;43.858;25.974;2022-11-24T02:21:05;31.58;;;21.35;;
42168;SDS011;27838;43.858;25.974;2022-11-24T02:28:53;36.25;;;22.65;;
42168;SDS011;27838;43.858;25.974;2022-11-24T02:31:19;33.72;;;21.23;;
42168;SDS011;27838;43.858;25.974;2022-11-24T02:33:47;34.30;;;21.85;;
42168;SDS011;27838;43.858;25.974;2022-11-24T02:36:15;29.45;;;20.50;;
42168;SDS011;27838;43.858;25.974;2022-11-24T02:38:41;32.33;;;20.88;;
42168;SDS011;27838;43.858;25.974;2022-11-24T02:41:09;32.25;;;21.67;;
42168;SDS011;27838;43.858;25.974;2022-11-24T02:43:44;33.53;;;22.30;;
42168;SDS011;27838;43.858;25.974;2022-11-24T02:46:18;33.40;;;21.50;;
42168;SDS011;27838;43.858;25.974;2022-11-24T02:48:44;34.22;;;22.10;;
42168;SDS011;27838;43.858;25.974;2022-11-24T02:51:11;32.78;;;21.40;;
42168;SDS011;27838;43.858;25.974;2022-11-24T02:53:37;40.50;;;22.25;;
42168;SDS011;27838;43.858;25.974;2022-11-24T02:56:04;36.58;;;22.50;;
42168;SDS011;27838;43.858;25.974;2022-11-24T02:58:31;36.90;;;22.63;;
42168;SDS011;27838;43.858;25.974;2022-11-24T03:00:57;38.42;;;22.38;;
42168;SDS011;27838;43.858;25.974;2022-11-24T03:03:24;40.55;;;23.83;;
42168;SDS011;27838;43.858;25.974;2022-11-24T03:05:51;36.83;;;23.63;;
42168;SDS011;27838;43.858;25.974;2022-11-24T03:08:18;37.08;;;23.02;;
42168;SDS011;27838;43.858;25.974;2022-11-24T03:10:44;41.55;;;25.25;;
42168;SDS011;27838;43.858;25.974;2022-11-24T03:13:11;35.80;;;22.38;;
42168;SDS011;27838;43.858;25.974;2022-11-24T03:15:37;39.67;;;23.25;;
42168;SDS011;27838;43.858;25.974;2022-11-24T03:18:04;45.10;;;24.23;;
42168;SDS011;27838;43.858;25.974;2022-11-24T03:20:30;43.08;;;24.10;;
42168;SDS011;27838;43.858;25.974;2022-11-24T03:22:57;45.47;;;23.70;;
42168;SDS011;27838;43.858;25.974;2022-11-24T03:25:24;40.58;;;23.58;;
42168;SDS011;27838;43.858;25.974;2022-11-24T03:27:50;48.22;;;25.25;;
42168;SDS011;27838;43.858;25.974;2022-11-24T03:30:17;51.30;;;26.33;;
42168;SDS011;27838;43.858;25.974;2022-11-24T03:32:43;51.15;;;24.83;;
42168;SDS011;27838;43.858;25.974;2022-11-24T03:35:10;52.72;;;26.40;;
42168;SDS011;27838;43.858;25.974;2022-11-24T03:37:36;49.05;;;25.50;;
42168;SDS011;27838;43.858;25.974;2022-11-24T03:40:03;49.45;;;25.02;;
42168;SDS011;27838;43.858;25.974;2022-11-24T03:42:30;54.97;;;26.13;;
42168;SDS011;27838;43.858;25.974;2022-11-24T03:44:56;59.13;;;25.73;;
42168;SDS011;27838;43.858;25.974;2022-11-24T03:47:23;50.08;;;25.02;;
42168;SDS011;27838;43.858;25.974;2022-11-24T03:49:49;48.92;;;25.92;;
42168;SDS011;27838;43.858;25.974;2022-11-24T03:52:16;50.85;;;25.10;;
42168;SDS011;27838;43.858;25.974;2022-11-24T03:54:42;47.00;;;23.77;;
42168;SDS011;27838;43.858;25.974;2022-11-24T03:57:11;51.63;;;25.27;;
42168;SDS011;27838;43.858;25.974;2022-11-24T03:59:38;45.45;;;23.65;;
42168;SDS011;27838;43.858;25.974;2022-11-24T04:02:05;51.08;;;24.65;;
42168;SDS011;27838;43.858;25.974;2022-11-24T04:04:31;45.15;;;24.13;;
42168;SDS011;27838;43.858;25.974;2022-11-24T04:06:58;48.42;;;23.63;;
42168;SDS011;27838;43.858;25.974;2022-11-24T04:09:24;54.30;;;24.63;;
42168;SDS011;27838;43.858;25.974;2022-11-24T04:11:51;51.35;;;24.45;;
42168;SDS011;27838;43.858;25.974;2022-11-24T04:14:35;44.25;;;21.00;;
42168;SDS011;27838;43.858;25.974;2022-11-24T04:17:02;43.97;;;21.05;;
42168;SDS011;27838;43.858;25.974;2022-11-24T04:19:29;43.65;;;22.10;;
42168;SDS011;27838;43.858;25.974;2022-11-24T04:21:56;50.50;;;21.58;;
42168;SDS011;27838;43.858;25.974;2022-11-24T04:24:22;42.25;;;21.13;;
42168;SDS011;27838;43.858;25.974;2022-11-24T04:26:49;42.22;;;22.55;;
42168;SDS011;27838;43.858;25.974;2022-11-24T04:29:15;44.80;;;21.88;;
42168;SDS011;27838;43.858;25.974;2022-11-24T04:31:42;46.63;;;21.55;;
42168;SDS011;27838;43.858;25.974;2022-11-24T04:34:09;46.90;;;21.63;;
42168;SDS011;27838;43.858;25.974;2022-11-24T04:36:36;45.95;;;24.50;;
42168;SDS011;27838;43.858;25.974;2022-11-24T04:39:05;41.00;;;20.98;;
42168;SDS011;27838;43.858;25.974;2022-11-24T04:41:31;42.53;;;20.65;;
42168;SDS011;27838;43.858;25.974;2022-11-24T04:43:58;41.22;;;22.42;;
42168;SDS011;27838;43.858;25.974;2022-11-24T04:46:24;40.80;;;20.38;;
42168;SDS011;27838;43.858;25.974;2022-11-24T04:48:51;42.70;;;20.27;;
42168;SDS011;27838;43.858;25.974;2022-11-24T04:51:33;43.38;;;20.58;;
42168;SDS011;27838;43.858;25.974;2022-11-24T04:54:00;36.80;;;18.98;;
42168;SDS011;27838;43.858;25.974;2022-11-24T04:56:26;36.80;;;19.48;;
42168;SDS011;27838;43.858;25.974;2022-11-24T04:58:53;40.42;;;20.40;;
42168;SDS011;27838;43.858;25.974;2022-11-24T05:01:19;32.67;;;18.98;;
42168;SDS011;27838;43.858;25.974;2022-11-24T05:03:45;32.45;;;18.25;;
42168;SDS011;27838;43.858;25.974;2022-11-24T05:06:12;38.22;;;19.77;;
42168;SDS011;27838;43.858;25.974;2022-11-24T05:08:39;37.92;;;19.45;;
42168;SDS011;27838;43.858;25.974;2022-11-24T05:11:05;38.63;;;20.00;;
42168;SDS011;27838;43.858;25.974;2022-11-24T05:13:32;32.15;;;17.80;;
42168;SDS011;27838;43.858;25.974;2022-11-24T05:15:59;34.63;;;19.17;;
42168;SDS011;27838;43.858;25.974;2022-11-24T05:18:25;32.40;;;18.13;;
42168;SDS011;27838;43.858;25.974;2022-11-24T05:20:52;36.63;;;18.55;;
42168;SDS011;27838;43.858;25.974;2022-11-24T05:23:20;32.20;;;18.30;;
42168;SDS011;27838;43.858;25.974;2022-11-24T05:25:46;35.97;;;19.33;;
42168;SDS011;27838;43.858;25.974;2022-11-24T05:28:13;28.17;;;18.33;;
42168;SDS011;27838;43.858;25.974;2022-11-24T05:30:39;33.40;;;17.15;;
42168;SDS011;27838;43.858;25.974;2022-11-24T05:33:07;29.00;;;15.70;;
42168;SDS011;27838;43.858;25.974;2022-11-24T05:35:41;29.80;;;17.90;;
42168;SDS011;27838;43.858;25.974;2022-11-24T05:38:07;28.85;;;16.90;;
42168;SDS011;27838;43.858;25.974;2022-11-24T05:40:34;29.95;;;16.48;;
42168;SDS011;27838;43.858;25.974;2022-11-24T05:43:00;22.02;;;13.73;;
42168;SDS011;27838;43.858;25.974;2022-11-24T05:45:27;24.60;;;13.68;;
42168;SDS011;27838;43.858;25.974;2022-11-24T05:47:53;21.80;;;12.90;;
42168;SDS011;27838;43.858;25.974;2022-11-24T05:50:21;37.30;;;18.70;;
42168;SDS011;27838;43.858;25.974;2022-11-24T05:52:48;48.92;;;16.70;;
42168;SDS011;27838;43.858;25.974;2022-11-24T05:55:15;25.08;;;14.55;;
42168;SDS011;27838;43.858;25.974;2022-11-24T05:57:43;21.70;;;13.52;;
42168;SDS011;27838;43.858;25.974;2022-11-24T06:00:10;21.92;;;13.93;;
42168;SDS011;27838;43.858;25.974;2022-11-24T06:02:37;19.88;;;13.70;;
42168;SDS011;27838;43.858;25.974;2022-11-24T06:05:03;21.80;;;12.43;;
42168;SDS011;27838;43.858;25.974;2022-11-24T06:07:30;20.40;;;12.00;;
42168;SDS011;27838;43.858;25.974;2022-11-24T06:09:57;26.50;;;12.48;;
42168;SDS011;27838;43.858;25.974;2022-11-24T06:12:23;18.73;;;11.55;;
42168;SDS011;27838;43.858;25.974;2022-11-24T06:14:50;19.08;;;11.90;;
42168;SDS011;27838;43.858;25.974;2022-11-24T06:17:16;19.58;;;11.98;;
42168;SDS011;27838;43.858;25.974;2022-11-24T06:19:43;23.33;;;13.02;;
42168;SDS011;27838;43.858;25.974;2022-11-24T06:22:11;20.08;;;11.52;;
42168;SDS011;27838;43.858;25.974;2022-11-24T06:24:38;21.85;;;11.05;;
42168;SDS011;27838;43.858;25.974;2022-11-24T06:27:05;18.85;;;11.50;;
42168;SDS011;27838;43.858;25.974;2022-11-24T06:29:31;17.67;;;11.07;;
42168;SDS011;27838;43.858;25.974;2022-11-24T06:31:58;15.75;;;10.32;;
42168;SDS011;27838;43.858;25.974;2022-11-24T06:34:24;16.98;;;10.52;;
42168;SDS011;27838;43.858;25.974;2022-11-24T06:36:51;19.20;;;11.65;;
42168;SDS011;27838;43.858;25.974;2022-11-24T06:39:17;19.65;;;13.70;;
42168;SDS011;27838;43.858;25.974;2022-11-24T06:41:44;22.80;;;11.50;;
42168;SDS011;27838;43.858;25.974;2022-11-24T06:44:10;18.13;;;11.43;;
42168;SDS011;27838;43.858;25.974;2022-11-24T06:46:37;17.25;;;11.18;;
42168;SDS011;27838;43.858;25.974;2022-11-24T06:49:03;21.67;;;10.90;;
42168;SDS011;27838;43.858;25.974;2022-11-24T06:51:30;16.58;;;10.63;;
42168;SDS011;27838;43.858;25.974;2022-11-24T06:53:56;19.65;;;11.00;;
42168;SDS011;27838;43.858;25.974;2022-11-24T06:56:23;18.40;;;10.95;;
42168;SDS011;27838;43.858;25.974;2022-11-24T06:58:50;15.65;;;10.40;;
42168;SDS011;27838;43.858;25.974;2022-11-24T07:01:22;16.70;;;10.30;;
42168;SDS011;27838;43.858;25.974;2022-11-24T07:03:51;15.20;;;9.88;;
42168;SDS011;27838;43.858;25.974;2022-11-24T07:06:19;15.30;;;9.80;;
42168;SDS011;27838;43.858;25.974;2022-11-24T07:08:47;13.48;;;9.63;;
42168;SDS011;27838;43.858;25.974;2022-11-24T07:11:16;12.70;;;8.93;;
42168;SDS011;27838;43.858;25.974;2022-11-24T07:13:44;18.40;;;10.38;;
42168;SDS011;27838;43.858;25.974;2022-11-24T07:16:15;19.02;;;11.80;;
42168;SDS011;27838;43.858;25.974;2022-11-24T07:18:42;23.55;;;13.15;;
42168;SDS011;27838;43.858;25.974;2022-11-24T07:21:10;23.52;;;13.93;;
42168;SDS011;27838;43.858;25.974;2022-11-24T07:23:37;22.17;;;12.82;;
42168;SDS011;27838;43.858;25.974;2022-11-24T07:26:05;20.92;;;12.38;;
42168;SDS011;27838;43.858;25.974;2022-11-24T07:28:33;18.60;;;10.27;;
42168;SDS011;27838;43.858;25.974;2022-11-24T07:31:04;16.60;;;10.82;;
42168;SDS011;27838;43.858;25.974;2022-11-24T07:33:35;17.80;;;10.93;;
42168;SDS011;27838;43.858;25.974;2022-11-24T07:36:03;16.10;;;11.05;;
42168;SDS011;27838;43.858;25.974;2022-11-24T07:38:31;17.52;;;11.02;;
42168;SDS011;27838;43.858;25.974;2022-11-24T07:41:01;17.92;;;10.88;;
42168;SDS011;27838;43.858;25.974;2022-11-24T07:43:32;21.10;;;11.27;;
42168;SDS011;27838;43.858;25.974;2022-11-24T07:46:00;20.40;;;12.07;;
42168;SDS011;27838;43.858;25.974;2022-11-24T07:48:29;23.20;;;13.23;;
42168;SDS011;27838;43.858;25.974;2022-11-24T07:50:59;22.33;;;13.50;;
42168;SDS011;27838;43.858;25.974;2022-11-24T07:53:29;29.90;;;15.85;;
42168;SDS011;27838;43.858;25.974;2022-11-24T07:55:57;31.00;;;17.05;;
42168;SDS011;27838;43.858;25.974;2022-11-24T07:58:28;30.77;;;16.60;;
42168;SDS011;27838;43.858;25.974;2022-11-24T08:00:56;28.42;;;14.40;;
42168;SDS011;27838;43.858;25.974;2022-11-24T08:03:23;26.50;;;14.73;;
42168;SDS011;27838;43.858;25.974;2022-11-24T08:05:54;29.88;;;15.55;;
42168;SDS011;27838;43.858;25.974;2022-11-24T08:08:24;33.78;;;15.88;;
42168;SDS011;27838;43.858;25.974;2022-11-24T08:10:51;29.02;;;14.35;;
42168;SDS011;27838;43.858;25.974;2022-11-24T08:13:18;25.13;;;13.65;;
42168;SDS011;27838;43.858;25.974;2022-11-24T08:15:45;27.23;;;14.55;;
42168;SDS011;27838;43.858;25.974;2022-11-24T08:18:11;28.17;;;16.27;;
42168;SDS011;27838;43.858;25.974;2022-11-24T08:20:38;21.80;;;11.70;;
42168;SDS011;27838;43.858;25.974;2022-11-24T08:23:04;21.38;;;12.55;;
42168;SDS011;27838;43.858;25.974;2022-11-24T08:25:31;31.83;;;17.95;;
42168;SDS011;27838;43.858;25.974;2022-11-24T08:27:58;28.17;;;15.57;;
42168;SDS011;27838;43.858;25.974;2022-11-24T08:30:25;23.15;;;12.00;;
42168;SDS011;27838;43.858;25.974;2022-11-24T08:32:52;19.55;;;10.88;;
42168;SDS011;27838;43.858;25.974;2022-11-24T08:35:19;19.75;;;9.82;;
42168;SDS011;27838;43.858;25.974;2022-11-24T08:37:46;16.83;;;10.52;;
42168;SDS011;27838;43.858;25.974;2022-11-24T08:40:12;15.88;;;9.77;;
42168;SDS011;27838;43.858;25.974;2022-11-24T08:42:39;15.98;;;10.40;;
42168;SDS011;27838;43.858;25.974;2022-11-24T08:45:05;14.98;;;10.55;;
42168;SDS011;27838;43.858;25.974;2022-11-24T08:47:32;18.17;;;9.18;;
42168;SDS011;27838;43.858;25.974;2022-11-24T08:49:59;16.05;;;8.88;;
42168;SDS011;27838;43.858;25.974;2022-11-24T08:52:26;13.02;;;8.57;;
42168;SDS011;27838;43.858;25.974;2022-11-24T08:54:52;17.83;;;8.30;;
42168;SDS011;27838;43.858;25.974;2022-11-24T08:57:19;19.00;;;9.05;;
42168;SDS011;27838;43.858;25.974;2022-11-24T08:59:45;15.60;;;8.65;;
42168;SDS011;27838;43.858;25.974;2022-11-24T09:02:12;17.35;;;9.18;;
42168;SDS011;27838;43.858;25.974;2022-11-24T09:04:39;14.88;;;9.48;;
42168;SDS011;27838;43.858;25.974;2022-11-24T09:07:05;22.42;;;11.65;;
42168;SDS011;27838;43.858;25.974;2022-11-24T09:09:32;17.50;;;11.00;;
42168;SDS011;27838;43.858;25.974;2022-11-24T09:11:58;23.27;;;11.90;;
42168;SDS011;27838;43.858;25.974;2022-11-24T09:14:25;19.67;;;11.95;;
42168;SDS011;27838;43.858;25.974;2022-11-24T09:16:51;24.15;;;12.02;;
42168;SDS011;27838;43.858;25.974;2022-11-24T09:19:18;22.95;;;12.38;;
42168;SDS011;27838;43.858;25.974;2022-11-24T09:21:45;21.50;;;14.02;;
42168;SDS011;27838;43.858;25.974;2022-11-24T09:24:11;20.25;;;12.52;;
42168;SDS011;27838;43.858;25.974;2022-11-24T09:26:38;20.08;;;12.05;;
42168;SDS011;27838;43.858;25.974;2022-11-24T09:29:05;18.50;;;11.95;;
42168;SDS011;27838;43.858;25.974;2022-11-24T09:31:33;19.52;;;11.88;;
42168;SDS011;27838;43.858;25.974;2022-11-24T09:34:02;16.60;;;10.50;;
42168;SDS011;27838;43.858;25.974;2022-11-24T09:36:30;20.58;;;11.52;;
42168;SDS011;27838;43.858;25.974;2022-11-24T09:38:57;21.38;;;12.13;;
42168;SDS011;27838;43.858;25.974;2022-11-24T09:50:21;25.02;;;12.57;;
42168;SDS011;27838;43.858;25.974;2022-11-24T10:00:55;26.77;;;14.52;;
42168;SDS011;27838;43.858;25.974;2022-11-24T10:05:58;34.58;;;19.65;;
42168;SDS011;27838;43.858;25.974;2022-11-24T10:09:19;30.05;;;17.80;;
42168;SDS011;27838;43.858;25.974;2022-11-24T10:11:16;30.23;;;17.13;;
42168;SDS011;27838;43.858;25.974;2022-11-24T10:14:03;28.08;;;15.70;;
42168;SDS011;27838;43.858;25.974;2022-11-24T10:16:52;23.55;;;14.50;;
42168;SDS011;27838;43.858;25.974;2022-11-24T10:19:35;32.00;;;19.08;;
42168;SDS011;27838;43.858;25.974;2022-11-24T10:22:22;27.00;;;17.17;;
42168;SDS011;27838;43.858;25.974;2022-11-24T10:25:36;29.52;;;17.40;;
42168;SDS011;27838;43.858;25.974;2022-11-24T10:28:02;33.38;;;20.60;;
42168;SDS011;27838;43.858;25.974;2022-11-24T10:30:35;39.42;;;23.80;;
42168;SDS011;27838;43.858;25.974;2022-11-24T10:33:05;32.00;;;19.02;;
42168;SDS011;27838;43.858;25.974;2022-11-24T10:35:46;26.02;;;15.80;;
42168;SDS011;27838;43.858;25.974;2022-11-24T10:38:30;37.08;;;22.45;;
42168;SDS011;27838;43.858;25.974;2022-11-24T10:41:12;32.38;;;17.90;;
42168;SDS011;27838;43.858;25.974;2022-11-24T10:43:41;30.33;;;17.35;;
42168;SDS011;27838;43.858;25.974;2022-11-24T10:46:10;33.92;;;16.35;;
42168;SDS011;27838;43.858;25.974;2022-11-24T10:48:42;33.05;;;17.42;;
42168;SDS011;27838;43.858;25.974;2022-11-24T10:52:15;33.55;;;17.50;;
42168;SDS011;27838;43.858;25.974;2022-11-24T10:54:21;32.00;;;16.67;;
42168;SDS011;27838;43.858;25.974;2022-11-24T10:56:50;30.02;;;18.23;;
42168;SDS011;27838;43.858;25.974;2022-11-24T11:01:54;36.88;;;23.67;;
42168;SDS011;27838;43.858;25.974;2022-11-24T11:04:24;25.55;;;15.70;;
42168;SDS011;27838;43.858;25.974;2022-11-24T11:06:51;32.95;;;20.58;;
42168;SDS011;27838;43.858;25.974;2022-11-24T11:09:18;18.77;;;13.10;;
42168;SDS011;27838;43.858;25.974;2022-11-24T11:11:47;15.02;;;11.30;;
42168;SDS011;27838;43.858;25.974;2022-11-24T11:14:30;16.27;;;11.15;;
42168;SDS011;27838;43.858;25.974;2022-11-24T11:16:59;18.65;;;9.35;;
42168;SDS011;27838;43.858;25.974;2022-11-24T11:19:42;17.77;;;12.63;;
42168;SDS011;27838;43.858;25.974;2022-11-24T11:24:38;10.18;;;6.88;;
42168;SDS011;27838;43.858;25.974;2022-11-24T11:27:17;9.32;;;3.63;;
42168;SDS011;27838;43.858;25.974;2022-11-24T11:29:48;10.60;;;3.20;;
42168;SDS011;27838;43.858;25.974;2022-11-24T11:32:22;3.58;;;2.78;;
42168;SDS011;27838;43.858;25.974;2022-11-24T11:34:51;5.78;;;2.03;;
42168;SDS011;27838;43.858;25.974;2022-11-24T11:37:20;18.85;;;4.18;;
42168;SDS011;27838;43.858;25.974;2022-11-24T11:39:49;10.73;;;2.25;;
42168;SDS011;27838;43.858;25.974;2022-11-24T11:44:52;2.70;;;2.17;;
42168;SDS011;27838;43.858;25.974;2022-11-24T11:47:27;4.88;;;2.70;;
42168;SDS011;27838;43.858;25.974;2022-11-24T11:49:58;5.60;;;3.20;;
42168;SDS011;27838;43.858;25.974;2022-11-24T11:52:41;4.03;;;3.10;;
42168;SDS011;27838;43.858;25.974;2022-11-24T11:58:02;5.97;;;3.72;;
42168;SDS011;27838;43.858;25.974;2022-11-24T12:00:44;6.95;;;3.30;;
42168;SDS011;27838;43.858;25.974;2022-11-24T12:26:57;8.70;;;5.78;;
42168;SDS011;27838;43.858;25.974;2022-11-24T12:30:24;17.33;;;7.28;;
42168;SDS011;27838;43.858;25.974;2022-11-24T12:40:59;10.95;;;7.15;;
42168;SDS011;27838;43.858;25.974;2022-11-24T12:43:55;15.38;;;5.63;;
42168;SDS011;27838;43.858;25.974;2022-11-24T12:52:22;32.47;;;10.68;;
42168;SDS011;27838;43.858;25.974;2022-11-24T12:54:53;28.60;;;15.88;;
42168;SDS011;27838;43.858;25.974;2022-11-24T13:00:21;15.00;;;6.93;;
42168;SDS011;27838;43.858;25.974;2022-11-24T13:03:08;14.32;;;7.55;;
42168;SDS011;27838;43.858;25.974;2022-11-24T13:06:00;19.55;;;13.82;;
42168;SDS011;27838;43.858;25.974;2022-11-24T13:08:33;15.45;;;6.90;;
42168;SDS011;27838;43.858;25.974;2022-11-24T13:13:56;8.23;;;6.38;;
42168;SDS011;27838;43.858;25.974;2022-11-24T13:16:48;9.40;;;6.22;;
42168;SDS011;27838;43.858;25.974;2022-11-24T13:19:18;10.55;;;6.50;;
42168;SDS011;27838;43.858;25.974;2022-11-24T13:21:48;12.07;;;6.75;;
42168;SDS011;27838;43.858;25.974;2022-11-24T13:24:28;16.95;;;7.15;;
42168;SDS011;27838;43.858;25.974;2022-11-24T13:29:39;11.20;;;7.53;;
42168;SDS011;27838;43.858;25.974;2022-11-24T13:39:58;13.07;;;6.20;;
42168;SDS011;27838;43.858;25.974;2022-11-24T13:42:27;9.27;;;6.57;;
42168;SDS011;27838;43.858;25.974;2022-11-24T13:45:00;11.80;;;7.13;;
42168;SDS011;27838;43.858;25.974;2022-11-24T13:47:35;13.80;;;6.45;;
42168;SDS011;27838;43.858;25.974;2022-11-24T14:03:01;12.18;;;6.32;;
42168;SDS011;27838;43.858;25.974;2022-11-24T14:05:38;10.18;;;7.07;;
42168;SDS011;27838;43.858;25.974;2022-11-24T14:08:15;14.68;;;6.40;;
42168;SDS011;27838;43.858;25.974;2022-11-24T14:10:46;16.38;;;7.10;;
42168;SDS011;27838;43.858;25.974;2022-11-24T14:16:00;11.07;;;6.53;;
42168;SDS011;27838;43.858;25.974;2022-11-24T14:18:32;12.95;;;7.05;;
42168;SDS011;27838;43.858;25.974;2022-11-24T14:21:01;15.80;;;7.88;;
42168;SDS011;27838;43.858;25.974;2022-11-24T14:23:55;13.93;;;7.00;;
42168;SDS011;27838;43.858;25.974;2022-11-24T14:26:31;11.70;;;7.20;;
42168;SDS011;27838;43.858;25.974;2022-11-24T14:29:02;13.55;;;7.10;;
42168;SDS011;27838;43.858;25.974;2022-11-24T14:31:31;15.57;;;7.03;;
42168;SDS011;27838;43.858;25.974;2022-11-24T14:36:37;13.02;;;7.95;;
42168;SDS011;27838;43.858;25.974;2022-11-24T14:39:04;99.32;;;26.42;;
42168;SDS011;27838;43.858;25.974;2022-11-24T14:41:31;16.80;;;7.97;;
42168;SDS011;27838;43.858;25.974;2022-11-24T14:44:03;14.18;;;7.95;;
42168;SDS011;27838;43.858;25.974;2022-11-24T14:46:31;11.68;;;7.20;;
42168;SDS011;27838;43.858;25.974;2022-11-24T14:48:58;13.57;;;8.18;;
42168;SDS011;27838;43.858;25.974;2022-11-24T14:51:28;12.38;;;8.05;;
42168;SDS011;27838;43.858;25.974;2022-11-24T14:53:58;11.43;;;7.53;;
42168;SDS011;27838;43.858;25.974;2022-11-24T14:56:36;15.07;;;9.23;;
42168;SDS011;27838;43.858;25.974;2022-11-24T14:59:20;16.52;;;9.13;;
42168;SDS011;27838;43.858;25.974;2022-11-24T15:01:48;21.38;;;9.68;;
42168;SDS011;27838;43.858;25.974;2022-11-24T15:04:19;12.15;;;8.85;;
42168;SDS011;27838;43.858;25.974;2022-11-24T15:06:48;14.43;;;8.63;;
42168;SDS011;27838;43.858;25.974;2022-11-24T15:12:07;18.85;;;10.82;;
42168;SDS011;27838;43.858;25.974;2022-11-24T15:14:47;24.17;;;10.93;;
42168;SDS011;27838;43.858;25.974;2022-11-24T15:19:48;15.05;;;9.55;;
42168;SDS011;27838;43.858;25.974;2022-11-24T15:25:38;14.70;;;7.97;;
42168;SDS011;27838;43.858;25.974;2022-11-24T15:27:58;16.95;;;8.65;;
42168;SDS011;27838;43.858;25.974;2022-11-24T15:30:26;16.50;;;9.80;;
42168;SDS011;27838;43.858;25.974;2022-11-24T15:32:56;11.48;;;7.75;;
42168;SDS011;27838;43.858;25.974;2022-11-24T15:35:25;15.38;;;7.80;;
42168;SDS011;27838;43.858;25.974;2022-11-24T15:37:54;12.20;;;8.88;;
42168;SDS011;27838;43.858;25.974;2022-11-24T15:40:21;12.88;;;7.20;;
42168;SDS011;27838;43.858;25.974;2022-11-24T15:42:49;17.65;;;8.10;;
42168;SDS011;27838;43.858;25.974;2022-11-24T15:45:17;13.60;;;7.38;;
42168;SDS011;27838;43.858;25.974;2022-11-24T15:47:45;17.67;;;7.88;;
42168;SDS011;27838;43.858;25.974;2022-11-24T15:50:12;15.73;;;7.40;;
42168;SDS011;27838;43.858;25.974;2022-11-24T15:52:39;11.93;;;8.40;;
42168;SDS011;27838;43.858;25.974;2022-11-24T15:55:09;14.13;;;7.40;;
42168;SDS011;27838;43.858;25.974;2022-11-24T15:57:42;13.18;;;8.05;;
42168;SDS011;27838;43.858;25.974;2022-11-24T16:00:12;15.95;;;7.43;;
42168;SDS011;27838;43.858;25.974;2022-11-24T16:02:40;12.25;;;7.68;;
42168;SDS011;27838;43.858;25.974;2022-11-24T16:05:07;13.85;;;6.82;;
42168;SDS011;27838;43.858;25.974;2022-11-24T16:07:34;12.02;;;7.75;;
42168;SDS011;27838;43.858;25.974;2022-11-24T16:10:00;10.65;;;7.55;;
42168;SDS011;27838;43.858;25.974;2022-11-24T16:12:27;9.88;;;7.57;;
42168;SDS011;27838;43.858;25.974;2022-11-24T16:14:53;14.10;;;7.80;;
42168;SDS011;27838;43.858;25.974;2022-11-24T16:17:20;14.00;;;8.80;;
42168;SDS011;27838;43.858;25.974;2022-11-24T16:19:47;15.13;;;8.27;;
42168;SDS011;27838;43.858;25.974;2022-11-24T16:22:16;13.15;;;9.18;;
42168;SDS011;27838;43.858;25.974;2022-11-24T16:24:42;14.48;;;8.30;;
42168;SDS011;27838;43.858;25.974;2022-11-24T16:27:09;15.95;;;9.55;;